Time;durP1;ratioP1;P1;durP2;ratioP2;P2;SDS_P1;SDS_P2;PMS_P1;PMS_P2;Temp;Humidity;BMP_temperature;BMP_pressure;BME280_temperature;BME280_humidity;BME280_pressure;Samples;Min_cycle;Max_cycle;Signal;HPM_P1;HPM_P2
2022/11/01 00:00:26;;;;;;;5.80;3.92;;;;;;;;;;5134495;27;20026;-85
2022/11/01 00:02:52;;;;;;;9.85;5.70;;;;;;;;;;5118196;27;20456;-83
2022/11/01 00:05:18;;;;;;;9.52;4.93;;;;;;;;;;5118470;27;20022;-83
2022/11/01 00:07:44;;;;;;;8.00;4.70;;;;;;;;;;5136831;27;20053;-83
2022/11/01 00:10:10;;;;;;;6.13;4.95;;;;;;;;;;5136724;27;20024;-84
2022/11/01 00:12:36;;;;;;;7.40;4.15;;;;;;;;;;5136762;27;20023;-82
2022/11/01 00:15:03;;;;;;;8.43;4.63;;;;;;;;;;5136687;27;20015;-76
2022/11/01 00:17:29;;;;;;;111.55;93.80;;;;;;;;;;5136531;27;20023;-76
2022/11/01 00:19:55;;;;;;;49.25;37.00;;;;;;;;;;5136643;27;20030;-76
2022/11/01 00:22:21;;;;;;;12.23;8.57;;;;;;;;;;5136472;27;20023;-75
2022/11/01 00:24:47;;;;;;;7.25;5.30;;;;;;;;;;5136385;27;20469;-76
2022/11/01 00:27:13;;;;;;;8.43;5.47;;;;;;;;;;5136265;27;20483;-82
2022/11/01 00:29:39;;;;;;;16.25;10.10;;;;;;;;;;5136438;27;20034;-83
2022/11/01 00:32:05;;;;;;;17.25;13.02;;;;;;;;;;5135954;27;20022;-82
2022/11/01 00:34:31;;;;;;;26.00;21.73;;;;;;;;;;5117509;27;20055;-83
2022/11/01 00:36:58;;;;;;;11.65;6.82;;;;;;;;;;5136163;27;20024;-83
2022/11/01 00:39:24;;;;;;;7.80;5.35;;;;;;;;;;5117623;27;20398;-83
2022/11/01 00:41:50;;;;;;;8.15;4.78;;;;;;;;;;5136292;27;20019;-82
2022/11/01 00:44:16;;;;;;;8.07;5.18;;;;;;;;;;5136019;27;20031;-84
2022/11/01 00:46:42;;;;;;;7.45;4.72;;;;;;;;;;5136171;27;20019;-83
2022/11/01 00:49:08;;;;;;;10.05;5.32;;;;;;;;;;5135985;27;20026;-81
2022/11/01 00:51:34;;;;;;;10.10;5.80;;;;;;;;;;5135723;27;20087;-84
2022/11/01 00:54:00;;;;;;;9.30;5.15;;;;;;;;;;5135802;27;20083;-83
2022/11/01 00:56:26;;;;;;;8.98;5.18;;;;;;;;;;5135717;27;20101;-84
2022/11/01 00:58:53;;;;;;;8.93;5.38;;;;;;;;;;5135914;27;20098;-84
2022/11/01 01:01:19;;;;;;;9.70;5.15;;;;;;;;;;5135701;27;20015;-82
2022/11/01 01:03:45;;;;;;;9.93;5.05;;;;;;;;;;5135804;27;20023;-84
2022/11/01 01:06:12;;;;;;;7.43;4.65;;;;;;;;;;5117386;27;20031;-84
2022/11/01 01:08:38;;;;;;;10.80;5.20;;;;;;;;;;5135686;27;20034;-83
2022/11/01 01:11:04;;;;;;;10.73;5.28;;;;;;;;;;5135655;27;20062;-84
2022/11/01 01:13:30;;;;;;;9.20;4.82;;;;;;;;;;5135588;27;20016;-84
2022/11/01 01:15:56;;;;;;;9.40;5.18;;;;;;;;;;5135647;27;20019;-85
2022/11/01 01:18:22;;;;;;;9.95;4.90;;;;;;;;;;5135316;27;20026;-83
2022/11/01 01:20:48;;;;;;;9.20;4.50;;;;;;;;;;5135267;27;20023;-83
2022/11/01 01:23:14;;;;;;;9.18;5.80;;;;;;;;;;5135117;27;20047;-84
2022/11/01 01:25:41;;;;;;;10.90;6.25;;;;;;;;;;5135345;27;20023;-81
2022/11/01 01:28:07;;;;;;;8.40;5.30;;;;;;;;;;5135239;27;20023;-81
2022/11/01 01:30:33;;;;;;;9.80;5.97;;;;;;;;;;5116774;27;20114;-85
2022/11/01 01:32:59;;;;;;;10.57;6.45;;;;;;;;;;5135030;27;20019;-85
2022/11/01 01:35:25;;;;;;;11.07;5.18;;;;;;;;;;5135035;27;20026;-84
2022/11/01 01:37:51;;;;;;;9.00;5.30;;;;;;;;;;5134936;27;20416;-83
2022/11/01 01:40:17;;;;;;;10.68;5.72;;;;;;;;;;5134948;27;20466;-86
2022/11/01 01:42:45;;;;;;;11.70;6.55;;;;;;;;;;5134964;27;20126;-82
2022/11/01 01:45:24;;;;;;;9.07;6.15;;;;;;;;;;5134785;27;20019;-81
2022/11/01 01:47:51;;;;;;;11.30;7.05;;;;;;;;;;5134890;27;20027;-83
2022/11/01 01:50:24;;;;;;;12.40;7.93;;;;;;;;;;5116323;27;20405;-82
2022/11/01 01:52:50;;;;;;;9.05;6.68;;;;;;;;;;5134512;27;20047;-83
2022/11/01 01:55:19;;;;;;;13.88;6.80;;;;;;;;;;5134693;27;20072;-83
2022/11/01 01:57:46;;;;;;;9.73;6.43;;;;;;;;;;5134690;27;20027;-82
2022/11/01 02:00:12;;;;;;;10.20;6.82;;;;;;;;;;5116197;27;20388;-85
2022/11/01 02:02:39;;;;;;;8.85;5.72;;;;;;;;;;5116301;27;20023;-84
2022/11/01 02:05:24;;;;;;;11.02;6.22;;;;;;;;;;5134639;27;20027;-83
2022/11/01 02:07:50;;;;;;;;;;;;;;;;;;5135086;27;20019;-85
2022/11/01 02:10:16;;;;;;;15.52;6.25;;;;;;;;;;5134457;27;19914;-83
2022/11/01 02:12:47;;;;;;;11.43;6.20;;;;;;;;;;5134574;27;20019;-82
2022/11/01 02:15:14;;;;;;;9.10;6.28;;;;;;;;;;5134499;27;20030;-83
2022/11/01 02:17:47;;;;;;;7.03;5.50;;;;;;;;;;5134596;27;20023;-82
2022/11/01 02:20:17;;;;;;;9.57;5.25;;;;;;;;;;5134522;27;20425;-83
2022/11/01 02:22:52;;;;;;;9.40;6.30;;;;;;;;;;5134545;27;20114;-83
2022/11/01 02:25:18;;;;;;;7.82;5.30;;;;;;;;;;5115728;28;20035;-83
2022/11/01 02:27:44;;;;;;;10.80;6.28;;;;;;;;;;5134431;28;20023;-85
2022/11/01 02:30:15;;;;;;;10.10;5.53;;;;;;;;;;5134355;28;20027;-85
2022/11/01 02:33:00;;;;;;;12.70;6.28;;;;;;;;;;5134452;28;20058;-82
2022/11/01 02:35:29;;;;;;;8.63;6.55;;;;;;;;;;5115778;28;20121;-86
2022/11/01 02:38:14;;;;;;;9.48;6.05;;;;;;;;;;5134187;28;20030;-85
2022/11/01 02:40:43;;;;;;;10.73;6.90;;;;;;;;;;5134262;28;20058;-81
2022/11/01 02:43:14;;;;;;;11.82;6.78;;;;;;;;;;5134213;28;20019;-84
2022/11/01 02:45:42;;;;;;;11.35;7.25;;;;;;;;;;5116110;28;20081;-82
2022/11/01 02:48:08;;;;;;;24.40;17.13;;;;;;;;;;5134188;28;20496;-83
2022/11/01 02:50:42;;;;;;;23.10;15.30;;;;;;;;;;5134057;28;20438;-83
2022/11/01 02:53:08;;;;;;;;;;;;;;;;;;5134434;28;20043;-81
2022/11/01 02:55:35;;;;;;;15.70;9.95;;;;;;;;;;5134238;27;20006;-83
2022/11/01 02:58:05;;;;;;;8.57;5.07;;;;;;;;;;5138233;27;20047;-84
2022/11/01 03:00:33;;;;;;;9.57;6.20;;;;;;;;;;5138221;27;20023;-82
2022/11/01 03:03:02;;;;;;;12.00;6.50;;;;;;;;;;5119553;27;20020;-81
2022/11/01 03:05:45;;;;;;;9.77;6.72;;;;;;;;;;5138063;27;20538;-85
2022/11/01 03:08:13;;;;;;;9.32;5.70;;;;;;;;;;5137937;27;20414;-85
2022/11/01 03:10:58;;;;;;;10.60;6.30;;;;;;;;;;5138017;27;20102;-81
2022/11/01 03:13:28;;;;;;;;;;;;;;;;;;5138363;27;20038;-82
2022/11/01 03:15:57;;;;;;;9.88;5.50;;;;;;;;;;5137844;27;19911;-85
2022/11/01 03:18:31;;;;;;;13.60;7.20;;;;;;;;;;5137928;27;20043;-84
2022/11/01 03:21:01;;;;;;;13.45;8.52;;;;;;;;;;5137806;27;20030;-83
2022/11/01 03:23:33;;;;;;;10.77;7.05;;;;;;;;;;5119186;27;20031;-83
2022/11/01 03:26:01;;;;;;;9.07;6.68;;;;;;;;;;5137657;27;20079;-80
2022/11/01 03:28:30;;;;;;;14.00;6.18;;;;;;;;;;5137774;27;20038;-84
2022/11/01 03:31:01;;;;;;;10.82;6.07;;;;;;;;;;5137539;27;20033;-84
2022/11/01 03:33:27;;;;;;;9.07;6.20;;;;;;;;;;5137420;27;20377;-81
2022/11/01 03:35:57;;;;;;;11.90;6.47;;;;;;;;;;5137509;27;20102;-83
2022/11/01 03:38:25;;;;;;;13.07;7.10;;;;;;;;;;5118920;27;20031;-84
2022/11/01 03:41:00;;;;;;;14.43;8.85;;;;;;;;;;5137416;27;20019;-83
2022/11/01 03:43:28;;;;;;;15.52;9.70;;;;;;;;;;5137370;27;20027;-83
2022/11/01 03:45:55;;;;;;;16.15;7.68;;;;;;;;;;5137186;27;20023;-83
2022/11/01 03:48:21;;;;;;;13.20;7.97;;;;;;;;;;5137248;27;20473;-84
2022/11/01 03:50:48;;;;;;;14.88;9.35;;;;;;;;;;5118615;27;20035;-82
2022/11/01 03:53:14;;;;;;;15.15;9.23;;;;;;;;;;5136794;27;20051;-83
2022/11/01 03:55:40;;;;;;;19.35;10.32;;;;;;;;;;5136954;27;20023;-81
2022/11/01 03:58:07;;;;;;;19.20;10.27;;;;;;;;;;5136960;27;20028;-82
2022/11/01 04:00:35;;;;;;;17.23;8.77;;;;;;;;;;5136979;27;20023;-82
2022/11/01 04:03:01;;;;;;;15.93;9.73;;;;;;;;;;5136966;27;20026;-84
2022/11/01 04:05:28;;;;;;;15.57;9.02;;;;;;;;;;5136862;27;20019;-84
2022/11/01 04:07:55;;;;;;;15.48;8.68;;;;;;;;;;5135458;27;20023;-82
2022/11/01 04:10:22;;;;;;;13.20;8.57;;;;;;;;;;5136871;27;20023;-81
2022/11/01 04:12:48;;;;;;;13.77;9.10;;;;;;;;;;5136577;27;20102;-81
2022/11/01 04:21:03;;;;;;;14.82;8.48;;;;;;;;;;5136802;27;20401;-83
2022/11/01 04:23:29;;;;;;;13.07;9.43;;;;;;;;;;5136601;27;20027;-84
2022/11/01 04:25:56;;;;;;;12.38;8.73;;;;;;;;;;5136531;27;20073;-82
2022/11/01 04:28:22;;;;;;;14.85;8.20;;;;;;;;;;5136445;27;20048;-84
2022/11/01 04:30:48;;;;;;;10.93;7.70;;;;;;;;;;5117918;27;20019;-83
2022/11/01 04:33:14;;;;;;;13.43;8.20;;;;;;;;;;5136322;27;20023;-84
2022/11/01 04:35:41;;;;;;;12.80;8.70;;;;;;;;;;5136548;27;20020;-82
2022/11/01 04:38:08;;;;;;;8.90;7.22;;;;;;;;;;5136227;27;20015;-82
2022/11/01 04:40:34;;;;;;;10.50;7.65;;;;;;;;;;5136245;27;20031;-84
2022/11/01 04:43:00;;;;;;;11.48;7.25;;;;;;;;;;5136102;27;20104;-82
2022/11/01 04:45:27;;;;;;;13.73;7.85;;;;;;;;;;5136048;27;20015;-84
2022/11/01 04:48:02;;;;;;;11.13;8.13;;;;;;;;;;5136023;27;20019;-85
2022/11/01 04:50:29;;;;;;;17.48;10.20;;;;;;;;;;5135779;27;20375;-84
2022/11/01 04:52:55;;;;;;;21.52;13.45;;;;;;;;;;5135291;27;20490;-81
2022/11/01 04:55:21;;;;;;;21.50;15.25;;;;;;;;;;5135376;27;20027;-83
2022/11/01 04:57:47;;;;;;;16.75;11.15;;;;;;;;;;5135562;27;20030;-83
2022/11/01 05:00:13;;;;;;;14.30;9.32;;;;;;;;;;5135849;27;20023;-85
2022/11/01 05:02:40;;;;;;;12.93;7.65;;;;;;;;;;5135765;27;20025;-81
2022/11/01 05:05:07;;;;;;;10.98;7.63;;;;;;;;;;5135196;27;20019;-85
2022/11/01 05:07:33;;;;;;;13.18;7.95;;;;;;;;;;5135631;27;20107;-85
2022/11/01 05:09:59;;;;;;;13.82;9.27;;;;;;;;;;5135326;27;20027;-81
2022/11/01 05:12:26;;;;;;;14.18;7.28;;;;;;;;;;5135622;27;20044;-84
2022/11/01 05:14:52;;;;;;;9.15;6.65;;;;;;;;;;5135493;27;20101;-84
2022/11/01 05:17:18;;;;;;;11.50;7.07;;;;;;;;;;5135309;27;20375;-82
2022/11/01 05:19:44;;;;;;;14.85;7.45;;;;;;;;;;5135096;27;20027;-83
2022/11/01 05:22:10;;;;;;;18.08;8.55;;;;;;;;;;5135367;27;20434;-82
2022/11/01 05:24:36;;;;;;;13.30;8.98;;;;;;;;;;5116857;27;20023;-83
2022/11/01 05:27:02;;;;;;;15.55;10.50;;;;;;;;;;5116371;27;20164;-84
2022/11/01 05:29:28;;;;;;;22.42;14.00;;;;;;;;;;5134424;27;20498;-82
2022/11/01 05:31:54;;;;;;;17.55;12.20;;;;;;;;;;5134668;27;20023;-85
2022/11/01 05:34:20;;;;;;;17.08;9.88;;;;;;;;;;5134527;27;20535;-84
2022/11/01 05:36:46;;;;;;;12.77;8.88;;;;;;;;;;5134778;27;20023;-82
2022/11/01 05:39:12;;;;;;;11.60;8.77;;;;;;;;;;5134566;27;20027;-82
2022/11/01 05:41:39;;;;;;;15.02;9.43;;;;;;;;;;5134684;27;20051;-82
2022/11/01 05:44:05;;;;;;;23.10;16.85;;;;;;;;;;5134816;27;20031;-82
2022/11/01 05:46:32;;;;;;;29.58;20.23;;;;;;;;;;5114152;28;20510;-82
2022/11/01 05:48:58;;;;;;;31.85;25.00;;;;;;;;;;5113588;28;20066;-83
2022/11/01 05:51:24;;;;;;;34.38;22.85;;;;;;;;;;5114050;28;20028;-84
2022/11/01 05:53:50;;;;;;;32.70;21.65;;;;;;;;;;5113932;28;20434;-85
2022/11/01 05:56:17;;;;;;;30.67;20.60;;;;;;;;;;5133524;27;20019;-83
2022/11/01 05:58:43;;;;;;;30.95;20.08;;;;;;;;;;5116413;27;20389;-83
2022/11/01 06:01:09;;;;;;;51.08;29.50;;;;;;;;;;5134739;27;20023;-83
2022/11/01 06:03:36;;;;;;;47.97;29.60;;;;;;;;;;5134551;27;20015;-81
2022/11/01 06:06:02;;;;;;;48.08;26.67;;;;;;;;;;5134544;27;20486;-84
2022/11/01 06:08:29;;;;;;;47.17;28.65;;;;;;;;;;5134314;27;20032;-83
2022/11/01 06:11:02;;;;;;;42.55;26.88;;;;;;;;;;5132969;27;20034;-83
2022/11/01 06:13:29;;;;;;;30.55;20.45;;;;;;;;;;5133931;27;20048;-83
2022/11/01 06:15:58;;;;;;;29.92;20.77;;;;;;;;;;5134259;27;20025;-82
2022/11/01 06:18:25;;;;;;;20.13;14.23;;;;;;;;;;5133941;27;20019;-81
2022/11/01 06:20:51;;;;;;;33.00;19.88;;;;;;;;;;5134334;27;20033;-82
2022/11/01 06:23:17;;;;;;;21.42;11.50;;;;;;;;;;5134160;27;20031;-80
2022/11/01 06:25:43;;;;;;;20.67;11.50;;;;;;;;;;5134321;28;20039;-84
2022/11/01 06:28:09;;;;;;;23.00;14.38;;;;;;;;;;5133109;27;20042;-82
2022/11/01 06:30:37;;;;;;;16.05;10.55;;;;;;;;;;5146878;27;20027;-84
2022/11/01 06:33:05;;;;;;;14.18;9.23;;;;;;;;;;5135261;27;20054;-82
2022/11/01 06:35:32;;;;;;;14.40;9.27;;;;;;;;;;5136965;27;20042;-82
2022/11/01 06:38:07;;;;;;;15.00;8.90;;;;;;;;;;5133532;27;20023;-81
2022/11/01 06:40:34;;;;;;;18.63;10.30;;;;;;;;;;5127066;27;20083;-83
2022/11/01 06:43:01;;;;;;;16.15;12.70;;;;;;;;;;5117585;27;20035;-82
2022/11/01 06:45:27;;;;;;;14.70;11.45;;;;;;;;;;5118424;27;20430;-91
2022/11/01 06:47:54;;;;;;;18.02;12.25;;;;;;;;;;5101937;27;20077;-86
2022/11/01 06:50:20;;;;;;;15.13;11.57;;;;;;;;;;5136300;27;20485;-88
2022/11/01 06:52:46;;;;;;;27.45;16.52;;;;;;;;;;5118125;27;20486;-87
2022/11/01 06:55:12;;;;;;;19.23;12.15;;;;;;;;;;5135854;27;20546;-85
2022/11/01 06:57:38;;;;;;;16.85;10.32;;;;;;;;;;5114158;28;20027;-84
2022/11/01 07:00:05;;;;;;;21.25;12.40;;;;;;;;;;5104597;27;20050;-83
2022/11/01 07:02:31;;;;;;;25.75;15.48;;;;;;;;;;5124460;27;20057;-85
2022/11/01 07:04:57;;;;;;;16.10;11.05;;;;;;;;;;5135209;27;20062;-83
2022/11/01 07:07:23;;;;;;;13.07;11.02;;;;;;;;;;5129215;27;20119;-82
2022/11/01 07:09:50;;;;;;;16.48;10.38;;;;;;;;;;5134472;27;20022;-84
2022/11/01 07:12:16;;;;;;;16.80;10.27;;;;;;;;;;5135431;27;20478;-86
2022/11/01 07:14:42;;;;;;;16.20;11.80;;;;;;;;;;5110428;27;20118;-83
2022/11/01 07:17:08;;;;;;;14.52;10.43;;;;;;;;;;5122168;27;20080;-85
2022/11/01 07:19:34;;;;;;;14.93;10.93;;;;;;;;;;5135415;27;20035;-88
2022/11/01 07:22:00;;;;;;;40.25;31.52;;;;;;;;;;5119659;27;20035;-87
2022/11/01 07:24:26;;;;;;;53.67;43.20;;;;;;;;;;5134428;27;20098;-82
2022/11/01 07:26:52;;;;;;;27.10;24.15;;;;;;;;;;5135722;27;20027;-86
2022/11/01 07:29:19;;;;;;;16.88;14.77;;;;;;;;;;5116946;27;20080;-86
2022/11/01 07:31:46;;;;;;;23.40;17.20;;;;;;;;;;5129790;27;20026;-85
2022/11/01 07:34:13;;;;;;;24.00;14.40;;;;;;;;;;5129395;27;20039;-85
2022/11/01 07:36:39;;;;;;;20.98;13.75;;;;;;;;;;5114694;27;20031;-85
2022/11/01 07:39:05;;;;;;;15.85;9.48;;;;;;;;;;5114929;28;20036;-85
2022/11/01 07:41:31;;;;;;;18.48;10.60;;;;;;;;;;5125055;27;20080;-83
2022/11/01 07:43:57;;;;;;;12.95;9.70;;;;;;;;;;5116541;27;20031;-84
2022/11/01 07:46:23;;;;;;;16.73;11.15;;;;;;;;;;5116458;27;20035;-85
2022/11/01 07:48:50;;;;;;;19.35;12.35;;;;;;;;;;5152377;27;20586;-84
2022/11/01 07:51:16;;;;;;;26.92;14.50;;;;;;;;;;5146874;27;20457;-87
2022/11/01 07:53:42;;;;;;;198.18;73.30;;;;;;;;;;5137184;27;20075;-86
2022/11/01 07:56:09;;;;;;;173.68;63.78;;;;;;;;;;5124612;27;20028;-89
2022/11/01 07:58:35;;;;;;;201.07;76.80;;;;;;;;;;5141526;27;20073;-86
2022/11/01 08:01:01;;;;;;;201.77;74.05;;;;;;;;;;5134823;27;20031;-83
2022/11/01 08:03:27;;;;;;;135.82;50.47;;;;;;;;;;5119332;27;20061;-82
2022/11/01 08:05:55;;;;;;;162.88;65.47;;;;;;;;;;5114175;28;20039;-85
2022/11/01 08:08:21;;;;;;;185.73;70.85;;;;;;;;;;5115231;27;20401;-80
2022/11/01 08:10:47;;;;;;;164.82;58.97;;;;;;;;;;5102934;27;20400;-82
2022/11/01 08:13:32;;;;;;;91.00;37.25;;;;;;;;;;5117383;27;20031;-83
2022/11/01 08:15:58;;;;;;;;;;;;;;;;;;5116565;27;20050;-87
2022/11/01 08:18:24;;;;;;;129.18;47.25;;;;;;;;;;5134216;27;19950;-85
2022/11/01 08:20:50;;;;;;;136.65;51.70;;;;;;;;;;5132917;27;20050;-85
2022/11/01 08:23:17;;;;;;;139.23;52.35;;;;;;;;;;5132545;27;20027;-87
2022/11/01 08:25:43;;;;;;;39.88;21.17;;;;;;;;;;5130383;27;20034;-83
2022/11/01 08:28:17;;;;;;;23.70;12.70;;;;;;;;;;5108739;27;20027;-83
2022/11/01 08:30:44;;;;;;;13.82;8.05;;;;;;;;;;5133616;27;20440;-80
2022/11/01 08:33:10;;;;;;;12.15;6.95;;;;;;;;;;5120339;27;20027;-83
2022/11/01 08:35:37;;;;;;;19.45;9.70;;;;;;;;;;5127919;27;20019;-81
2022/11/01 08:38:03;;;;;;;30.48;14.13;;;;;;;;;;5127468;27;20510;-83
2022/11/01 08:40:30;;;;;;;51.30;21.75;;;;;;;;;;5133065;27;20156;-82
2022/11/01 08:42:56;;;;;;;87.20;41.25;;;;;;;;;;5117083;27;20031;-81
2022/11/01 08:45:23;;;;;;;129.68;50.38;;;;;;;;;;5133576;27;20038;-84
2022/11/01 08:47:49;;;;;;;157.95;61.13;;;;;;;;;;5133084;27;20102;-87
2022/11/01 08:50:16;;;;;;;39.03;20.60;;;;;;;;;;5117862;27;20390;-84
2022/11/01 08:52:42;;;;;;;44.35;18.00;;;;;;;;;;5121017;27;20050;-82
2022/11/01 08:55:10;;;;;;;18.10;8.43;;;;;;;;;;5112833;27;20058;-84
2022/11/01 08:57:36;;;;;;;228.35;83.35;;;;;;;;;;5133355;27;20094;-86
2022/11/01 09:00:03;;;;;;;171.70;64.20;;;;;;;;;;5129585;27;20038;-85
2022/11/01 09:02:29;;;;;;;118.82;44.90;;;;;;;;;;5127547;27;20175;-87
2022/11/01 09:04:55;;;;;;;164.60;62.60;;;;;;;;;;5129184;27;20109;-86
2022/11/01 09:07:21;;;;;;;220.13;80.30;;;;;;;;;;5125664;27;20019;-83
2022/11/01 09:09:48;;;;;;;211.23;80.57;;;;;;;;;;5096105;27;20028;-80
2022/11/01 09:12:14;;;;;;;225.15;87.03;;;;;;;;;;5132036;27;20035;-81
2022/11/01 09:14:40;;;;;;;208.00;83.20;;;;;;;;;;5132904;27;20106;-81
2022/11/01 09:17:06;;;;;;;155.52;58.40;;;;;;;;;;5130362;27;20781;-82
2022/11/01 09:19:32;;;;;;;58.85;25.38;;;;;;;;;;5132095;27;20106;-82
2022/11/01 09:21:58;;;;;;;89.53;35.30;;;;;;;;;;5130038;27;20023;-83
2022/11/01 09:24:24;;;;;;;88.53;36.65;;;;;;;;;;5128986;27;20027;-82
2022/11/01 09:26:50;;;;;;;56.25;22.55;;;;;;;;;;5132395;27;20106;-81
2022/11/01 09:29:17;;;;;;;69.72;28.55;;;;;;;;;;5120547;27;20020;-81
2022/11/01 09:31:43;;;;;;;26.80;12.30;;;;;;;;;;5124256;27;20047;-83
2022/11/01 09:34:10;;;;;;;113.00;46.28;;;;;;;;;;5112198;27;20035;-84
2022/11/01 09:36:37;;;;;;;52.58;21.40;;;;;;;;;;5106580;27;20114;-83
2022/11/01 09:39:03;;;;;;;68.20;26.40;;;;;;;;;;5094273;28;20024;-84
2022/11/01 09:41:34;;;;;;;73.72;28.13;;;;;;;;;;5125829;27;20023;-83
2022/11/01 09:44:22;;;;;;;71.65;32.80;;;;;;;;;;5121376;27;20035;-81
2022/11/01 09:47:19;;;;;;;51.08;25.40;;;;;;;;;;5113205;27;20032;-84
2022/11/01 09:49:47;;;;;;;53.70;26.77;;;;;;;;;;5038673;27;20033;-85
2022/11/01 09:52:22;;;;;;;43.03;20.65;;;;;;;;;;5108681;27;20061;-84
2022/11/01 09:54:48;;;;;;;40.55;19.00;;;;;;;;;;5132329;27;20419;-82
2022/11/01 09:57:33;;;;;;;46.25;21.67;;;;;;;;;;5131052;27;20553;-80
2022/11/01 10:00:21;;;;;;;39.33;16.45;;;;;;;;;;5117658;27;20031;-83
2022/11/01 10:03:06;;;;;;;41.33;17.45;;;;;;;;;;5128420;27;20080;-86
2022/11/01 10:05:44;;;;;;;44.70;20.00;;;;;;;;;;5119497;27;20390;-86
2022/11/01 10:08:30;;;;;;;59.55;22.05;;;;;;;;;;5112992;27;20028;-88
2022/11/01 10:11:05;;;;;;;74.10;29.80;;;;;;;;;;5124156;27;20762;-84
2022/11/01 10:13:31;;;;;;;71.75;30.00;;;;;;;;;;5125490;27;20068;-85
2022/11/01 10:16:06;;;;;;;48.03;18.67;;;;;;;;;;5133546;27;20019;-88
2022/11/01 10:18:41;;;;;;;47.60;19.63;;;;;;;;;;5108594;28;20054;-90
2022/11/01 10:21:14;;;;;;;84.50;34.85;;;;;;;;;;5131981;27;20038;-88
2022/11/01 10:23:51;;;;;;;128.35;48.88;;;;;;;;;;5114947;28;20034;-84
2022/11/01 10:26:43;;;;;;;100.20;37.88;;;;;;;;;;5112101;28;20103;-85
2022/11/01 10:29:11;;;;;;;93.05;34.05;;;;;;;;;;5112619;28;20087;-85
2022/11/01 10:31:40;;;;;;;61.72;26.48;;;;;;;;;;5132679;28;20072;-83
2022/11/01 10:34:25;;;;;;;87.68;31.65;;;;;;;;;;5129021;28;20038;-84
2022/11/01 10:36:55;;;;;;;65.97;26.63;;;;;;;;;;5117126;27;20019;-85
2022/11/01 10:39:44;;;;;;;67.63;27.77;;;;;;;;;;5109471;28;20486;-87
2022/11/01 10:42:15;;;;;;;42.00;15.98;;;;;;;;;;5102262;28;20534;-82
2022/11/01 10:45:00;;;;;;;64.55;23.60;;;;;;;;;;5127457;28;20027;-85
2022/11/01 10:47:27;;;;;;;12.43;6.18;;;;;;;;;;5108873;28;20023;-85
2022/11/01 10:50:13;;;;;;;25.92;12.32;;;;;;;;;;5130278;28;20024;-87
2022/11/01 10:52:43;;;;;;;62.55;24.85;;;;;;;;;;5094329;28;20052;-88
2022/11/01 10:55:18;;;;;;;76.65;27.88;;;;;;;;;;5084151;28;20145;-89
2022/11/01 10:57:48;;;;;;;25.77;10.43;;;;;;;;;;5084737;28;20119;-85
2022/11/01 11:00:17;;;;;;;14.07;6.70;;;;;;;;;;5086077;28;20027;-85
2022/11/01 11:02:51;;;;;;;40.47;15.40;;;;;;;;;;5126202;28;20040;-85
2022/11/01 11:05:24;;;;;;;13.07;6.28;;;;;;;;;;5087836;28;20044;-83
2022/11/01 11:07:52;;;;;;;6.35;4.57;;;;;;;;;;5060132;28;20028;-83
2022/11/01 11:10:19;;;;;;;17.90;8.15;;;;;;;;;;5069979;28;20028;-85
2022/11/01 11:12:46;;;;;;;32.83;13.07;;;;;;;;;;5067204;28;20013;-84
2022/11/01 11:15:32;;;;;;;13.63;8.40;;;;;;;;;;5090199;28;20071;-86
2022/11/01 11:18:04;;;;;;;36.90;14.00;;;;;;;;;;5075496;28;20587;-86
2022/11/01 11:20:32;;;;;;;32.35;14.43;;;;;;;;;;5093424;28;20036;-83
2022/11/01 11:23:01;;;;;;;25.65;10.77;;;;;;;;;;5093263;28;20024;-83
2022/11/01 11:25:46;;;;;;;16.10;8.68;;;;;;;;;;5093968;28;20447;-84
2022/11/01 11:28:20;;;;;;;7.00;4.72;;;;;;;;;;5076607;28;20453;-83
2022/11/01 11:30:46;;;;;;;10.10;5.15;;;;;;;;;;5093213;28;20063;-84
2022/11/01 11:33:16;;;;;;;9.90;4.40;;;;;;;;;;5085018;28;20475;-81
2022/11/01 11:35:52;;;;;;;19.40;8.77;;;;;;;;;;5091360;28;20408;-84
2022/11/01 11:38:18;;;;;;;11.20;5.97;;;;;;;;;;5091044;28;20024;-83
2022/11/01 11:40:44;;;;;;;8.70;4.72;;;;;;;;;;5076002;28;20089;-81
2022/11/01 11:43:21;;;;;;;11.45;5.82;;;;;;;;;;5093894;28;20020;-85
2022/11/01 11:46:07;;;;;;;13.25;7.32;;;;;;;;;;5084820;28;20040;-84
2022/11/01 11:48:36;;;;;;;9.38;5.85;;;;;;;;;;5089709;28;20040;-84
2022/11/01 11:51:06;;;;;;;26.15;12.93;;;;;;;;;;5082926;28;20085;-89
2022/11/01 11:53:32;;;;;;;15.85;8.20;;;;;;;;;;5103828;27;20040;-81
2022/11/01 11:56:10;;;;;;;23.02;12.25;;;;;;;;;;5113065;27;20031;-88
2022/11/01 11:58:57;;;;;;;;;;;;;;;;;;;;;
2022/11/01 12:01:40;;;;;;;33.25;17.73;;;;;;;;;;5129210;27;20019;-87
2022/11/01 12:04:19;;;;;;;35.58;19.48;;;;;;;;;;5134475;27;20098;-86
2022/11/01 12:06:46;;;;;;;17.35;9.23;;;;;;;;;;5135303;27;20382;-84
2022/11/01 12:09:37;;;;;;;32.25;17.13;;;;;;;;;;5115582;27;20453;-87
2022/11/01 12:12:15;;;;;;;14.15;7.40;;;;;;;;;;5116319;27;20023;-86
2022/11/01 12:14:42;;;;;;;9.10;6.40;;;;;;;;;;5113124;27;20032;-88
2022/11/01 12:17:29;;;;;;;9.25;4.95;;;;;;;;;;5111432;27;20359;-88
2022/11/01 12:20:14;;;;;;;8.73;4.30;;;;;;;;;;5130531;27;20054;-88
2022/11/01 12:22:43;;;;;;;11.00;5.25;;;;;;;;;;5132654;27;20058;-87
2022/11/01 12:25:14;;;;;;;11.65;4.90;;;;;;;;;;5109825;27;20029;-84
2022/11/01 12:27:43;;;;;;;10.07;5.18;;;;;;;;;;5133351;27;20529;-84
2022/11/01 12:30:20;;;;;;;9.88;6.28;;;;;;;;;;5113219;27;20031;-86
2022/11/01 12:33:05;;;;;;;16.67;6.60;;;;;;;;;;5114582;27;20026;-84
2022/11/01 12:35:34;;;;;;;11.02;5.53;;;;;;;;;;5133933;27;20382;-87
2022/11/01 12:38:06;;;;;;;7.35;4.10;;;;;;;;;;5134136;27;20011;-87
2022/11/01 12:40:40;;;;;;;8.82;4.60;;;;;;;;;;5116363;27;20019;-88
2022/11/01 12:43:24;;;;;;;8.27;3.92;;;;;;;;;;5134951;27;20018;-86
2022/11/01 12:45:56;;;;;;;7.07;3.92;;;;;;;;;;5134693;27;20088;-88
2022/11/01 12:48:43;;;;;;;7.30;3.65;;;;;;;;;;5134794;27;20023;-83
2022/11/01 12:51:28;;;;;;;9.07;4.15;;;;;;;;;;5115290;27;20023;-84
2022/11/01 12:53:58;;;;;;;5.82;3.85;;;;;;;;;;5131334;27;20047;-85
2022/11/01 12:56:24;;;;;;;7.95;3.78;;;;;;;;;;5133500;27;20072;-89
2022/11/01 12:58:52;;;;;;;15.25;4.10;;;;;;;;;;5133025;27;20426;-85
2022/11/01 13:01:37;;;;;;;7.15;3.90;;;;;;;;;;5115933;27;20068;-85
2022/11/01 13:04:20;;;;;;;6.47;4.15;;;;;;;;;;5132899;27;20057;-88
2022/11/01 13:07:06;;;;;;;11.00;5.38;;;;;;;;;;5111031;27;20050;-82
2022/11/01 13:10:01;;;;;;;14.57;7.72;;;;;;;;;;5138052;27;20887;-90
2022/11/01 13:12:50;;;;;;;24.63;19.92;;;;;;;;;;5108052;27;20512;-84
2022/11/01 13:15:35;;;;;;;12.55;6.25;;;;;;;;;;5095617;27;20035;-86
2022/11/01 13:18:07;;;;;;;7.15;4.50;;;;;;;;;;5133761;27;20046;-85
2022/11/01 13:20:37;;;;;;;13.07;5.63;;;;;;;;;;5127843;27;20023;-87
2022/11/01 13:23:09;;;;;;;9.68;4.55;;;;;;;;;;5102596;27;20027;-85
2022/11/01 13:25:42;;;;;;;11.25;4.78;;;;;;;;;;5133240;27;20098;-87
2022/11/01 13:28:11;;;;;;;11.15;4.00;;;;;;;;;;5133940;27;20477;-85
2022/11/01 13:30:38;;;;;;;8.38;3.85;;;;;;;;;;5117793;27;20175;-86
2022/11/01 13:33:15;;;;;;;11.60;5.70;;;;;;;;;;5103824;28;20064;-84
2022/11/01 13:36:00;;;;;;;8.38;4.00;;;;;;;;;;5114539;27;20044;-89
2022/11/01 13:38:32;;;;;;;10.00;3.67;;;;;;;;;;5123051;27;20032;-85
2022/11/01 13:41:01;;;;;;;9.57;4.10;;;;;;;;;;5103450;27;20031;-83
2022/11/01 13:43:35;;;;;;;7.55;3.85;;;;;;;;;;5105473;27;20097;-83
2022/11/01 13:46:02;;;;;;;13.60;4.22;;;;;;;;;;5133532;27;20501;-83
2022/11/01 13:48:37;;;;;;;7.88;4.28;;;;;;;;;;5111486;28;20039;-83
2022/11/01 13:51:11;;;;;;;10.48;4.57;;;;;;;;;;5126981;27;20039;-84
2022/11/01 13:54:09;;;;;;;10.18;3.97;;;;;;;;;;5106265;28;20044;-85
2022/11/01 13:56:39;;;;;;;9.90;4.38;;;;;;;;;;5067963;28;20044;-86
2022/11/01 13:59:30;;;;;;;9.95;3.85;;;;;;;;;;5110070;27;20023;-87
2022/11/01 14:02:15;;;;;;;6.00;3.08;;;;;;;;;;5101209;28;20057;-89
2022/11/01 14:05:14;;;;;;;;;;;;;;;;;;;;;
2022/11/01 14:07:43;;;;;;;9.25;3.50;;;;;;;;;;5112567;28;20042;-90
2022/11/01 14:10:10;;;;;;;8.05;3.17;;;;;;;;;;5094678;28;20038;-87
2022/11/01 14:12:58;;;;;;;7.00;3.67;;;;;;;;;;5113373;28;20031;-87
2022/11/01 14:15:27;;;;;;;8.68;4.80;;;;;;;;;;5111824;28;20085;-84
2022/11/01 14:17:56;;;;;;;6.82;3.50;;;;;;;;;;5113028;28;20020;-80
2022/11/01 14:20:26;;;;;;;10.10;4.20;;;;;;;;;;5105024;28;20042;-79
2022/11/01 14:22:53;;;;;;;5.97;3.70;;;;;;;;;;5112845;28;20035;-79
2022/11/01 14:25:19;;;;;;;7.90;3.65;;;;;;;;;;5112518;28;20046;-83
2022/11/01 14:27:49;;;;;;;10.50;3.65;;;;;;;;;;5112167;28;20117;-84
2022/11/01 14:30:22;;;;;;;10.57;3.80;;;;;;;;;;5091801;28;20028;-84
2022/11/01 14:33:02;;;;;;;12.53;3.37;;;;;;;;;;5092403;28;20028;-82
2022/11/01 14:35:34;;;;;;;8.23;4.22;;;;;;;;;;5101163;28;20034;-82
2022/11/01 14:38:01;;;;;;;8.35;4.15;;;;;;;;;;5112645;28;20016;-83
2022/11/01 14:40:40;;;;;;;12.35;3.65;;;;;;;;;;5112377;28;20035;-82
2022/11/01 14:43:26;;;;;;;10.23;3.63;;;;;;;;;;5112984;28;20031;-83
2022/11/01 14:46:25;;;;;;;6.85;3.00;;;;;;;;;;5090917;28;20089;-83
2022/11/01 14:48:51;;;;;;;8.85;3.30;;;;;;;;;;5063141;28;20044;-81
2022/11/01 14:51:21;;;;;;;8.98;3.10;;;;;;;;;;5093863;28;20055;-81
2022/11/01 14:53:49;;;;;;;5.95;3.28;;;;;;;;;;5116472;28;20104;-82